sensor_id;sensor_type;location;lat;lon;timestamp;pressure;altitude;pressure_sealevel;temperature
31528;BMP280;10206;48.012;10.030;2024-03-02T00:00:51;93630.13;;;7.14
31528;BMP280;10206;48.012;10.030;2024-03-02T00:03:18;93626.13;;;7.15
31528;BMP280;10206;48.012;10.030;2024-03-02T00:05:49;93624.25;;;7.17
31528;BMP280;10206;48.012;10.030;2024-03-02T00:08:24;93622.44;;;7.20
31528;BMP280;10206;48.012;10.030;2024-03-02T00:10:57;93628.97;;;7.17
31528;BMP280;10206;48.012;10.030;2024-03-02T00:13:23;93627.84;;;7.20
31528;BMP280;10206;48.012;10.030;2024-03-02T00:15:53;93624.88;;;7.25
31528;BMP280;10206;48.012;10.030;2024-03-02T00:18:24;93622.31;;;7.27
31528;BMP280;10206;48.012;10.030;2024-03-02T00:20:53;93618.84;;;7.17
31528;BMP280;10206;48.012;10.030;2024-03-02T00:23:21;93622.84;;;7.16
31528;BMP280;10206;48.012;10.030;2024-03-02T00:25:50;93622.25;;;7.18
31528;BMP280;10206;48.012;10.030;2024-03-02T00:28:24;93621.72;;;7.19
31528;BMP280;10206;48.012;10.030;2024-03-02T00:33:31;93620.13;;;7.16
31528;BMP280;10206;48.012;10.030;2024-03-02T00:35:58;93618.00;;;7.24
31528;BMP280;10206;48.012;10.030;2024-03-02T00:38:26;93621.72;;;7.19
31528;BMP280;10206;48.012;10.030;2024-03-02T00:40:52;93625.41;;;7.14
31528;BMP280;10206;48.012;10.030;2024-03-02T00:45:56;93620.41;;;7.20
31528;BMP280;10206;48.012;10.030;2024-03-02T00:48:23;93623.72;;;7.28
31528;BMP280;10206;48.012;10.030;2024-03-02T00:50:52;93629.44;;;7.23
31528;BMP280;10206;48.012;10.030;2024-03-02T00:53:23;93630.56;;;7.10
31528;BMP280;10206;48.012;10.030;2024-03-02T00:55:52;93624.97;;;7.08
31528;BMP280;10206;48.012;10.030;2024-03-02T00:58:18;93627.13;;;7.19
31528;BMP280;10206;48.012;10.030;2024-03-02T01:00:44;93628.28;;;7.16
31528;BMP280;10206;48.012;10.030;2024-03-02T01:03:10;93634.22;;;7.05
31528;BMP280;10206;48.012;10.030;2024-03-02T01:05:36;93631.41;;;7.03
31528;BMP280;10206;48.012;10.030;2024-03-02T01:08:03;93633.94;;;7.01
31528;BMP280;10206;48.012;10.030;2024-03-02T01:10:29;93639.38;;;7.01
31528;BMP280;10206;48.012;10.030;2024-03-02T01:12:55;93628.41;;;7.18
31528;BMP280;10206;48.012;10.030;2024-03-02T01:15:21;93627.13;;;7.19
31528;BMP280;10206;48.012;10.030;2024-03-02T01:17:47;93620.97;;;7.09
31528;BMP280;10206;48.012;10.030;2024-03-02T01:20:14;93626.47;;;6.92
31528;BMP280;10206;48.012;10.030;2024-03-02T01:22:40;93620.81;;;7.07
31528;BMP280;10206;48.012;10.030;2024-03-02T01:25:06;93626.84;;;7.15
31528;BMP280;10206;48.012;10.030;2024-03-02T01:27:34;93624.16;;;7.15
31528;BMP280;10206;48.012;10.030;2024-03-02T01:30:00;93629.97;;;7.02
31528;BMP280;10206;48.012;10.030;2024-03-02T01:32:26;93626.00;;;7.13
31528;BMP280;10206;48.012;10.030;2024-03-02T01:34:52;93611.72;;;7.22
31528;BMP280;10206;48.012;10.030;2024-03-02T01:37:19;93616.13;;;7.17
31528;BMP280;10206;48.012;10.030;2024-03-02T01:39:45;93617.28;;;7.24
31528;BMP280;10206;48.012;10.030;2024-03-02T01:42:11;93615.56;;;7.28
31528;BMP280;10206;48.012;10.030;2024-03-02T01:44:37;93611.72;;;7.31
31528;BMP280;10206;48.012;10.030;2024-03-02T01:47:03;93624.00;;;7.23
31528;BMP280;10206;48.012;10.030;2024-03-02T01:49:29;93621.03;;;7.38
31528;BMP280;10206;48.012;10.030;2024-03-02T01:51:55;93626.72;;;7.32
31528;BMP280;10206;48.012;10.030;2024-03-02T01:54:22;93626.72;;;7.32
31528;BMP280;10206;48.012;10.030;2024-03-02T01:56:48;93626.16;;;7.53
31528;BMP280;10206;48.012;10.030;2024-03-02T01:59:14;93631.16;;;7.56
31528;BMP280;10206;48.012;10.030;2024-03-02T02:01:40;93642.44;;;7.63
31528;BMP280;10206;48.012;10.030;2024-03-02T02:04:07;93638.13;;;7.40
31528;BMP280;10206;48.012;10.030;2024-03-02T02:06:33;93640.72;;;7.38
31528;BMP280;10206;48.012;10.030;2024-03-02T02:08:59;93642.59;;;7.36
31528;BMP280;10206;48.012;10.030;2024-03-02T02:11:26;93634.56;;;7.28
31528;BMP280;10206;48.012;10.030;2024-03-02T02:13:52;93637.25;;;7.09
31528;BMP280;10206;48.012;10.030;2024-03-02T02:16:21;93642.66;;;7.09
31528;BMP280;10206;48.012;10.030;2024-03-02T02:18:47;93642.69;;;7.19
31528;BMP280;10206;48.012;10.030;2024-03-02T02:21:13;93642.09;;;7.20
31528;BMP280;10206;48.012;10.030;2024-03-02T02:23:39;93641.69;;;7.24
31528;BMP280;10206;48.012;10.030;2024-03-02T02:26:06;93652.00;;;7.44
31528;BMP280;10206;48.012;10.030;2024-03-02T02:28:32;93637.44;;;7.59
31528;BMP280;10206;48.012;10.030;2024-03-02T02:30:58;93642.00;;;7.37
31528;BMP280;10206;48.012;10.030;2024-03-02T02:33:26;93643.13;;;7.34
31528;BMP280;10206;48.012;10.030;2024-03-02T02:35:52;93640.56;;;7.36
31528;BMP280;10206;48.012;10.030;2024-03-02T02:38:18;93640.56;;;7.36
31528;BMP280;10206;48.012;10.030;2024-03-02T02:40:45;93643.72;;;7.42
31528;BMP280;10206;48.012;10.030;2024-03-02T02:43:12;93634.28;;;7.43
31528;BMP280;10206;48.012;10.030;2024-03-02T02:45:38;93636.88;;;7.41
31528;BMP280;10206;48.012;10.030;2024-03-02T02:48:04;93631.97;;;7.30
31528;BMP280;10206;48.012;10.030;2024-03-02T02:50:31;93635.13;;;7.27
31528;BMP280;10206;48.012;10.030;2024-03-02T02:52:57;93627.59;;;7.25
31528;BMP280;10206;48.012;10.030;2024-03-02T02:55:23;93629.84;;;7.19
31528;BMP280;10206;48.012;10.030;2024-03-02T02:57:49;93631.13;;;7.18
31528;BMP280;10206;48.012;10.030;2024-03-02T03:00:16;93636.56;;;7.28
31528;BMP280;10206;48.012;10.030;2024-03-02T03:02:46;93626.72;;;7.32
31528;BMP280;10206;48.012;10.030;2024-03-02T03:05:14;93629.44;;;7.32
31528;BMP280;10206;48.012;10.030;2024-03-02T03:07:40;93635.59;;;7.42
31528;BMP280;10206;48.012;10.030;2024-03-02T03:10:07;93633.16;;;7.46
31528;BMP280;10206;48.012;10.030;2024-03-02T03:12:34;93628.59;;;7.49
31528;BMP280;10206;48.012;10.030;2024-03-02T03:15:01;93638.13;;;7.40
31528;BMP280;10206;48.012;10.030;2024-03-02T03:17:28;93634.28;;;7.43
31528;BMP280;10206;48.012;10.030;2024-03-02T03:19:54;93634.88;;;7.42
31528;BMP280;10206;48.012;10.030;2024-03-02T03:22:20;93629.88;;;7.38
31528;BMP280;10206;48.012;10.030;2024-03-02T03:24:47;93631.16;;;7.37
31528;BMP280;10206;48.012;10.030;2024-03-02T03:27:13;93627.59;;;7.25
31528;BMP280;10206;48.012;10.030;2024-03-02T03:29:39;93634.88;;;7.32
31528;BMP280;10206;48.012;10.030;2024-03-02T03:32:05;93640.03;;;7.57
31528;BMP280;10206;48.012;10.030;2024-03-02T03:34:35;93633.84;;;7.28
31528;BMP280;10206;48.012;10.030;2024-03-02T03:37:02;93634.38;;;7.07
31528;BMP280;10206;48.012;10.030;2024-03-02T03:39:28;93637.22;;;7.00
31528;BMP280;10206;48.012;10.030;2024-03-02T03:41:55;93642.50;;;7.17
31528;BMP280;10206;48.012;10.030;2024-03-02T03:44:21;93641.81;;;7.16
31528;BMP280;10206;48.012;10.030;2024-03-02T03:46:47;93637.69;;;7.15
31528;BMP280;10206;48.012;10.030;2024-03-02T03:49:13;93639.97;;;7.09
31528;BMP280;10206;48.012;10.030;2024-03-02T03:51:39;93644.63;;;6.99
31528;BMP280;10206;48.012;10.030;2024-03-02T03:54:05;93638.63;;;6.91
31528;BMP280;10206;48.012;10.030;2024-03-02T03:56:32;93638.16;;;6.85
31528;BMP280;10206;48.012;10.030;2024-03-02T03:58:58;93644.69;;;6.72
31528;BMP280;10206;48.012;10.030;2024-03-02T04:01:25;93639.75;;;6.88
31528;BMP280;10206;48.012;10.030;2024-03-02T04:03:51;93656.06;;;7.07
31528;BMP280;10206;48.012;10.030;2024-03-02T04:06:17;93649.34;;;6.99
31528;BMP280;10206;48.012;10.030;2024-03-02T04:08:43;93647.59;;;6.84
31528;BMP280;10206;48.012;10.030;2024-03-02T04:11:09;93645.28;;;6.80
31528;BMP280;10206;48.012;10.030;2024-03-02T04:13:36;93647.28;;;6.80
31528;BMP280;10206;48.012;10.030;2024-03-02T04:16:02;93647.28;;;6.80
31528;BMP280;10206;48.012;10.030;2024-03-02T04:18:29;93655.88;;;6.86
31528;BMP280;10206;48.012;10.030;2024-03-02T04:20:56;93652.81;;;6.72
31528;BMP280;10206;48.012;10.030;2024-03-02T04:23:24;93653.22;;;6.69
31528;BMP280;10206;48.012;10.030;2024-03-02T04:25:50;93643.81;;;6.70
31528;BMP280;10206;48.012;10.030;2024-03-02T04:28:16;93646.13;;;6.73
31528;BMP280;10206;48.012;10.030;2024-03-02T04:30:42;93647.00;;;6.76
31528;BMP280;10206;48.012;10.030;2024-03-02T04:33:08;93645.28;;;6.80
31528;BMP280;10206;48.012;10.030;2024-03-02T04:35:36;93649.38;;;6.72
31528;BMP280;10206;48.012;10.030;2024-03-02T04:38:03;93638.31;;;6.77
31528;BMP280;10206;48.012;10.030;2024-03-02T04:40:29;93651.69;;;6.75
31528;BMP280;10206;48.012;10.030;2024-03-02T04:42:55;93648.72;;;6.81
31528;BMP280;10206;48.012;10.030;2024-03-02T04:45:23;93647.84;;;6.78
31528;BMP280;10206;48.012;10.030;2024-03-02T04:47:49;93650.84;;;6.82
31528;BMP280;10206;48.012;10.030;2024-03-02T04:50:15;93655.13;;;6.76
31528;BMP280;10206;48.012;10.030;2024-03-02T04:52:41;93657.28;;;6.77
31528;BMP280;10206;48.012;10.030;2024-03-02T04:55:07;93659.63;;;6.64
31528;BMP280;10206;48.012;10.030;2024-03-02T04:57:56;93665.84;;;6.57
31528;BMP280;10206;48.012;10.030;2024-03-02T05:00:23;93657.16;;;6.49
31528;BMP280;10206;48.012;10.030;2024-03-02T05:02:49;93657.94;;;6.42
31528;BMP280;10206;48.012;10.030;2024-03-02T05:05:15;93662.78;;;6.43
31528;BMP280;10206;48.012;10.030;2024-03-02T05:07:41;93662.25;;;6.45
31528;BMP280;10206;48.012;10.030;2024-03-02T05:10:11;93658.97;;;6.46
31528;BMP280;10206;48.012;10.030;2024-03-02T05:12:37;93657.22;;;6.41
31528;BMP280;10206;48.012;10.030;2024-03-02T05:15:22;93659.34;;;6.43
31528;BMP280;10206;48.012;10.030;2024-03-02T05:17:48;93656.94;;;6.37
31528;BMP280;10206;48.012;10.030;2024-03-02T05:20:14;93654.75;;;6.26
31528;BMP280;10206;48.012;10.030;2024-03-02T05:22:41;93652.03;;;6.26
31528;BMP280;10206;48.012;10.030;2024-03-02T05:25:07;93660.38;;;6.20
31528;BMP280;10206;48.012;10.030;2024-03-02T05:27:33;93655.28;;;6.24
31528;BMP280;10206;48.012;10.030;2024-03-02T05:30:00;93657.03;;;6.29
31528;BMP280;10206;48.012;10.030;2024-03-02T05:32:26;93654.47;;;6.31
31528;BMP280;10206;48.012;10.030;2024-03-02T05:34:52;93651.78;;;6.31
31528;BMP280;10206;48.012;10.030;2024-03-02T05:37:18;93654.63;;;6.33
31528;BMP280;10206;48.012;10.030;2024-03-02T05:39:44;93649.25;;;6.16
31528;BMP280;10206;48.012;10.030;2024-03-02T05:42:11;93659.47;;;6.08
31528;BMP280;10206;48.012;10.030;2024-03-02T05:44:37;93661.06;;;6.11
31528;BMP280;10206;48.012;10.030;2024-03-02T05:47:03;93663.44;;;6.07
31528;BMP280;10206;48.012;10.030;2024-03-02T05:49:30;93660.19;;;6.09
31528;BMP280;10206;48.012;10.030;2024-03-02T05:51:56;93662.25;;;6.01
31528;BMP280;10206;48.012;10.030;2024-03-02T05:54:22;93655.22;;;6.15
31528;BMP280;10206;48.012;10.030;2024-03-02T05:56:48;93664.41;;;6.02
31528;BMP280;10206;48.012;10.030;2024-03-02T05:59:14;93663.44;;;6.07
31528;BMP280;10206;48.012;10.030;2024-03-02T06:01:46;93674.09;;;6.22
31528;BMP280;10206;48.012;10.030;2024-03-02T06:04:13;93675.22;;;6.19
31528;BMP280;10206;48.012;10.030;2024-03-02T06:06:40;93669.81;;;6.19
31528;BMP280;10206;48.012;10.030;2024-03-02T06:09:06;93663.91;;;6.13
31528;BMP280;10206;48.012;10.030;2024-03-02T06:11:39;93673.91;;;6.20
31528;BMP280;10206;48.012;10.030;2024-03-02T06:14:06;93668.22;;;6.16
31528;BMP280;10206;48.012;10.030;2024-03-02T06:16:33;93667.72;;;6.10
31528;BMP280;10206;48.012;10.030;2024-03-02T06:19:00;93666.53;;;6.21
31528;BMP280;10206;48.012;10.030;2024-03-02T06:21:26;93673.28;;;6.29
31528;BMP280;10206;48.012;10.030;2024-03-02T06:23:53;93677.00;;;6.34
31528;BMP280;10206;48.012;10.030;2024-03-02T06:26:19;93673.75;;;6.36
31528;BMP280;10206;48.012;10.030;2024-03-02T06:28:46;93675.56;;;6.33
31528;BMP280;10206;48.012;10.030;2024-03-02T06:31:12;93677.22;;;6.46
31528;BMP280;10206;48.012;10.030;2024-03-02T06:33:38;93676.84;;;6.59
31528;BMP280;10206;48.012;10.030;2024-03-02T06:36:06;93674.75;;;6.67
31528;BMP280;10206;48.012;10.030;2024-03-02T06:38:34;93680.63;;;6.73
31528;BMP280;10206;48.012;10.030;2024-03-02T06:41:00;93678.38;;;6.79
31528;BMP280;10206;48.012;10.030;2024-03-02T06:43:27;93675.81;;;6.81
31528;BMP280;10206;48.012;10.030;2024-03-02T06:45:53;93678.38;;;6.79
31528;BMP280;10206;48.012;10.030;2024-03-02T06:48:19;93676.97;;;6.78
31528;BMP280;10206;48.012;10.030;2024-03-02T06:50:50;93678.91;;;7.04
31528;BMP280;10206;48.012;10.030;2024-03-02T06:53:16;93682.50;;;7.16
31528;BMP280;10206;48.012;10.030;2024-03-02T06:55:46;93683.81;;;7.34
31528;BMP280;10206;48.012;10.030;2024-03-02T06:58:13;93686.00;;;7.55
31528;BMP280;10206;48.012;10.030;2024-03-02T07:00:41;93687.25;;;7.44
31528;BMP280;10206;48.012;10.030;2024-03-02T07:03:08;93680.00;;;7.56
31528;BMP280;10206;48.012;10.030;2024-03-02T07:05:34;93683.16;;;7.72
31528;BMP280;10206;48.012;10.030;2024-03-02T07:08:00;93681.56;;;7.79
31528;BMP280;10206;48.012;10.030;2024-03-02T07:10:27;93691.72;;;7.88
31528;BMP280;10206;48.012;10.030;2024-03-02T07:12:53;93694.59;;;7.90
31528;BMP280;10206;48.012;10.030;2024-03-02T07:15:19;93693.16;;;7.89
31528;BMP280;10206;48.012;10.030;2024-03-02T07:17:55;93691.00;;;8.06
31528;BMP280;10206;48.012;10.030;2024-03-02T07:20:21;93684.13;;;8.15
31528;BMP280;10206;48.012;10.030;2024-03-02T07:22:47;93683.81;;;8.20
31528;BMP280;10206;48.012;10.030;2024-03-02T07:25:14;93686.72;;;8.22
31528;BMP280;10206;48.012;10.030;2024-03-02T07:27:40;93685.13;;;8.29
31528;BMP280;10206;48.012;10.030;2024-03-02T07:30:07;93680.38;;;8.39
31528;BMP280;10206;48.012;10.030;2024-03-02T07:32:33;93683.63;;;8.47
31528;BMP280;10206;48.012;10.030;2024-03-02T07:34:59;93679.06;;;8.40
31528;BMP280;10206;48.012;10.030;2024-03-02T07:37:27;93671.34;;;8.46
31528;BMP280;10206;48.012;10.030;2024-03-02T07:39:53;93676.16;;;8.57
31528;BMP280;10206;48.012;10.030;2024-03-02T07:42:19;93682.59;;;8.52
31528;BMP280;10206;48.012;10.030;2024-03-02T07:44:45;93683.50;;;8.55
31528;BMP280;10206;48.012;10.030;2024-03-02T07:47:12;93682.94;;;8.37
31528;BMP280;10206;48.012;10.030;2024-03-02T07:49:38;93685.47;;;8.64
31528;BMP280;10206;48.012;10.030;2024-03-02T07:52:04;93678.94;;;8.78
31528;BMP280;10206;48.012;10.030;2024-03-02T07:54:30;93688.88;;;9.05
31528;BMP280;10206;48.012;10.030;2024-03-02T07:56:56;93686.22;;;9.16
31528;BMP280;10206;48.012;10.030;2024-03-02T07:59:23;93686.63;;;9.43
31528;BMP280;10206;48.012;10.030;2024-03-02T08:01:50;93682.69;;;9.35
31528;BMP280;10206;48.012;10.030;2024-03-02T08:04:17;93690.13;;;9.55
31528;BMP280;10206;48.012;10.030;2024-03-02T08:06:43;93694.38;;;9.80
31528;BMP280;10206;48.012;10.030;2024-03-02T08:09:09;93696.84;;;9.97
31528;BMP280;10206;48.012;10.030;2024-03-02T08:11:36;93693.41;;;9.96
31528;BMP280;10206;48.012;10.030;2024-03-02T08:14:03;93689.88;;;10.05
31528;BMP280;10206;48.012;10.030;2024-03-02T08:16:29;93694.34;;;10.34
31528;BMP280;10206;48.012;10.030;2024-03-02T08:18:55;93689.97;;;10.40
31528;BMP280;10206;48.012;10.030;2024-03-02T08:21:24;93695.19;;;10.48
31528;BMP280;10206;48.012;10.030;2024-03-02T08:23:50;93695.00;;;10.67
31528;BMP280;10206;48.012;10.030;2024-03-02T08:26:17;93692.03;;;10.74
31528;BMP280;10206;48.012;10.030;2024-03-02T08:28:43;93683.88;;;10.74
31528;BMP280;10206;48.012;10.030;2024-03-02T08:31:10;93683.13;;;10.85
31528;BMP280;10206;48.012;10.030;2024-03-02T08:33:36;93686.34;;;11.05
31528;BMP280;10206;48.012;10.030;2024-03-02T08:36:02;93684.28;;;11.17
31528;BMP280;10206;48.012;10.030;2024-03-02T08:38:29;93689.50;;;11.36
31528;BMP280;10206;48.012;10.030;2024-03-02T08:40:55;93682.00;;;11.48
31528;BMP280;10206;48.012;10.030;2024-03-02T08:43:21;93681.84;;;11.46
31528;BMP280;10206;48.012;10.030;2024-03-02T08:45:48;93684.69;;;11.60
31528;BMP280;10206;48.012;10.030;2024-03-02T08:48:15;93686.59;;;11.57
31528;BMP280;10206;48.012;10.030;2024-03-02T08:50:41;93688.88;;;11.49
31528;BMP280;10206;48.012;10.030;2024-03-02T08:53:07;93683.00;;;11.66
31528;BMP280;10206;48.012;10.030;2024-03-02T08:55:33;93694.16;;;11.70
31528;BMP280;10206;48.012;10.030;2024-03-02T08:57:59;93686.00;;;11.96
31528;BMP280;10206;48.012;10.030;2024-03-02T09:00:25;93684.84;;;11.87
31528;BMP280;10206;48.012;10.030;2024-03-02T09:02:51;93684.06;;;11.98
31528;BMP280;10206;48.012;10.030;2024-03-02T09:05:17;93694.63;;;12.42
31528;BMP280;10206;48.012;10.030;2024-03-02T09:07:44;93686.97;;;12.53
31528;BMP280;10206;48.012;10.030;2024-03-02T09:10:10;93688.31;;;12.65
31528;BMP280;10206;48.012;10.030;2024-03-02T09:12:36;93696.13;;;12.84
31528;BMP280;10206;48.012;10.030;2024-03-02T09:15:03;93686.63;;;12.99
31528;BMP280;10206;48.012;10.030;2024-03-02T09:17:30;93683.25;;;12.73
31528;BMP280;10206;48.012;10.030;2024-03-02T09:19:56;93679.50;;;12.80
31528;BMP280;10206;48.012;10.030;2024-03-02T09:22:22;93679.69;;;12.57
31528;BMP280;10206;48.012;10.030;2024-03-02T09:24:49;93678.81;;;12.93
31528;BMP280;10206;48.012;10.030;2024-03-02T09:27:15;93680.94;;;13.08
31528;BMP280;10206;48.012;10.030;2024-03-02T09:29:41;93679.69;;;13.39
31528;BMP280;10206;48.012;10.030;2024-03-02T09:32:08;93674.19;;;13.39
31528;BMP280;10206;48.012;10.030;2024-03-02T09:34:34;93674.69;;;13.49
31528;BMP280;10206;48.012;10.030;2024-03-02T09:37:00;93671.28;;;13.35
31528;BMP280;10206;48.012;10.030;2024-03-02T09:39:26;93665.47;;;13.42
31528;BMP280;10206;48.012;10.030;2024-03-02T09:41:53;93662.75;;;13.71
31528;BMP280;10206;48.012;10.030;2024-03-02T09:44:19;93666.59;;;13.80
31528;BMP280;10206;48.012;10.030;2024-03-02T09:46:49;93660.97;;;14.07
31528;BMP280;10206;48.012;10.030;2024-03-02T09:49:15;93666.41;;;14.21
31528;BMP280;10206;48.012;10.030;2024-03-02T09:51:48;93661.13;;;13.80
31528;BMP280;10206;48.012;10.030;2024-03-02T09:54:16;93666.50;;;14.23
31528;BMP280;10206;48.012;10.030;2024-03-02T09:56:42;93669.16;;;14.67
31528;BMP280;10206;48.012;10.030;2024-03-02T09:59:08;93655.97;;;14.79
31528;BMP280;10206;48.012;10.030;2024-03-02T10:01:34;93655.59;;;14.71
31528;BMP280;10206;48.012;10.030;2024-03-02T10:04:01;93653.50;;;14.54
31528;BMP280;10206;48.012;10.030;2024-03-02T10:06:28;93650.09;;;14.71
31528;BMP280;10206;48.012;10.030;2024-03-02T10:08:56;93650.19;;;14.89
31528;BMP280;10206;48.012;10.030;2024-03-02T10:11:35;93649.50;;;14.73
31528;BMP280;10206;48.012;10.030;2024-03-02T10:14:07;93642.56;;;14.88
31528;BMP280;10206;48.012;10.030;2024-03-02T10:16:35;93635.91;;;14.28
31528;BMP280;10206;48.012;10.030;2024-03-02T10:19:34;93633.16;;;14.59
31528;BMP280;10206;48.012;10.030;2024-03-02T10:22:02;93626.06;;;14.70
31528;BMP280;10206;48.012;10.030;2024-03-02T10:24:38;93630.50;;;14.30
31528;BMP280;10206;48.012;10.030;2024-03-02T10:27:17;93627.19;;;14.65
31528;BMP280;10206;48.012;10.030;2024-03-02T10:29:47;93629.75;;;14.14
31528;BMP280;10206;48.012;10.030;2024-03-02T10:32:13;93630.03;;;14.20
31528;BMP280;10206;48.012;10.030;2024-03-02T10:34:44;93627.28;;;14.20
31528;BMP280;10206;48.012;10.030;2024-03-02T10:37:13;93631.75;;;13.82
31528;BMP280;10206;48.012;10.030;2024-03-02T10:39:40;93623.59;;;14.45
31528;BMP280;10206;48.012;10.030;2024-03-02T10:42:07;93629.78;;;14.30
31528;BMP280;10206;48.012;10.030;2024-03-02T10:44:33;93629.31;;;14.04
31528;BMP280;10206;48.012;10.030;2024-03-02T10:47:02;93611.63;;;14.54
31528;BMP280;10206;48.012;10.030;2024-03-02T10:49:30;93610.69;;;14.80
31528;BMP280;10206;48.012;10.030;2024-03-02T10:51:57;93614.16;;;15.14
31528;BMP280;10206;48.012;10.030;2024-03-02T10:54:24;93610.41;;;15.58
31528;BMP280;10206;48.012;10.030;2024-03-02T10:56:53;93602.22;;;16.15
31528;BMP280;10206;48.012;10.030;2024-03-02T10:59:34;93595.13;;;16.28
31528;BMP280;10206;48.012;10.030;2024-03-02T11:02:03;93585.44;;;15.70
31528;BMP280;10206;48.012;10.030;2024-03-02T11:04:30;93590.38;;;15.56
31528;BMP280;10206;48.012;10.030;2024-03-02T11:07:05;93582.50;;;15.13
31528;BMP280;10206;48.012;10.030;2024-03-02T11:09:34;93580.19;;;14.90
31528;BMP280;10206;48.012;10.030;2024-03-02T11:12:06;93576.97;;;15.46
31528;BMP280;10206;48.012;10.030;2024-03-02T11:14:40;93565.44;;;15.87
31528;BMP280;10206;48.012;10.030;2024-03-02T11:17:09;93563.28;;;16.03
31528;BMP280;10206;48.012;10.030;2024-03-02T11:19:40;93559.88;;;15.85
31528;BMP280;10206;48.012;10.030;2024-03-02T11:22:06;93558.00;;;16.09
31528;BMP280;10206;48.012;10.030;2024-03-02T11:24:34;93554.50;;;15.89
31528;BMP280;10206;48.012;10.030;2024-03-02T11:27:04;93551.50;;;16.20
31528;BMP280;10206;48.012;10.030;2024-03-02T11:32:04;93535.44;;;15.21
31528;BMP280;10206;48.012;10.030;2024-03-02T11:34:34;93544.56;;;15.25
31528;BMP280;10206;48.012;10.030;2024-03-02T11:37:04;93535.38;;;15.19
31528;BMP280;10206;48.012;10.030;2024-03-02T11:39:31;93543.44;;;15.87
31528;BMP280;10206;48.012;10.030;2024-03-02T11:41:58;93539.91;;;15.85
31528;BMP280;10206;48.012;10.030;2024-03-02T11:44:27;93532.88;;;15.80
31528;BMP280;10206;48.012;10.030;2024-03-02T11:47:01;93523.09;;;16.14
31528;BMP280;10206;48.012;10.030;2024-03-02T11:49:56;93520.13;;;16.27
31528;BMP280;10206;48.012;10.030;2024-03-02T11:52:24;93522.16;;;16.27
31528;BMP280;10206;48.012;10.030;2024-03-02T11:54:52;93517.16;;;16.21
31528;BMP280;10206;48.012;10.030;2024-03-02T11:57:20;93514.44;;;15.84
31528;BMP280;10206;48.012;10.030;2024-03-02T11:59:48;93504.59;;;16.16
31528;BMP280;10206;48.012;10.030;2024-03-02T12:02:21;93509.91;;;16.30
31528;BMP280;10206;48.012;10.030;2024-03-02T12:04:48;93507.69;;;16.26
31528;BMP280;10206;48.012;10.030;2024-03-02T12:07:22;93497.34;;;15.86
31528;BMP280;10206;48.012;10.030;2024-03-02T12:09:49;93484.69;;;15.59
31528;BMP280;10206;48.012;10.030;2024-03-02T12:12:15;93480.34;;;15.34
31528;BMP280;10206;48.012;10.030;2024-03-02T12:14:51;93476.34;;;15.02
31528;BMP280;10206;48.012;10.030;2024-03-02T12:17:18;93484.13;;;15.25
31528;BMP280;10206;48.012;10.030;2024-03-02T12:19:45;93481.59;;;15.88
31528;BMP280;10206;48.012;10.030;2024-03-02T12:22:11;93484.66;;;15.77
31528;BMP280;10206;48.012;10.030;2024-03-02T12:24:38;93481.41;;;15.82
31528;BMP280;10206;48.012;10.030;2024-03-02T12:27:05;93468.78;;;16.14
31528;BMP280;10206;48.012;10.030;2024-03-02T12:29:31;93467.63;;;16.21
31528;BMP280;10206;48.012;10.030;2024-03-02T12:31:58;93474.47;;;16.20
31528;BMP280;10206;48.012;10.030;2024-03-02T12:34:25;93466.88;;;15.99
31528;BMP280;10206;48.012;10.030;2024-03-02T12:36:52;93470.41;;;16.43
31528;BMP280;10206;48.012;10.030;2024-03-02T12:39:22;93465.88;;;16.51
31528;BMP280;10206;48.012;10.030;2024-03-02T12:41:49;93453.97;;;16.88
31528;BMP280;10206;48.012;10.030;2024-03-02T12:44:20;93449.88;;;16.05
31528;BMP280;10206;48.012;10.030;2024-03-02T12:46:46;93452.25;;;16.55
31528;BMP280;10206;48.012;10.030;2024-03-02T12:49:14;93449.09;;;16.87
31528;BMP280;10206;48.012;10.030;2024-03-02T12:51:42;93445.16;;;16.92
31528;BMP280;10206;48.012;10.030;2024-03-02T12:54:09;93438.94;;;17.15
31528;BMP280;10206;48.012;10.030;2024-03-02T12:56:37;93436.06;;;15.83
31528;BMP280;10206;48.012;10.030;2024-03-02T12:59:03;93443.06;;;16.27
31528;BMP280;10206;48.012;10.030;2024-03-02T13:01:30;93441.19;;;16.53
31528;BMP280;10206;48.012;10.030;2024-03-02T13:03:57;93432.09;;;16.49
31528;BMP280;10206;48.012;10.030;2024-03-02T13:06:24;93424.91;;;16.18
31528;BMP280;10206;48.012;10.030;2024-03-02T13:08:53;93418.34;;;16.08
31528;BMP280;10206;48.012;10.030;2024-03-02T13:11:20;93421.59;;;15.63
31528;BMP280;10206;48.012;10.030;2024-03-02T13:13:46;93413.06;;;16.14
31528;BMP280;10206;48.012;10.030;2024-03-02T13:16:13;93423.38;;;16.35
31528;BMP280;10206;48.012;10.030;2024-03-02T13:18:40;93416.31;;;16.51
31528;BMP280;10206;48.012;10.030;2024-03-02T13:21:07;93407.84;;;16.89
31528;BMP280;10206;48.012;10.030;2024-03-02T13:23:33;93411.50;;;16.95
31528;BMP280;10206;48.012;10.030;2024-03-02T13:25:59;93412.16;;;15.88
31528;BMP280;10206;48.012;10.030;2024-03-02T13:28:26;93399.09;;;15.88
31528;BMP280;10206;48.012;10.030;2024-03-02T13:30:52;93393.38;;;15.60
31528;BMP280;10206;48.012;10.030;2024-03-02T13:33:18;93388.84;;;16.10
31528;BMP280;10206;48.012;10.030;2024-03-02T13:35:51;93391.78;;;16.16
31528;BMP280;10206;48.012;10.030;2024-03-02T13:38:19;93381.88;;;16.07
31528;BMP280;10206;48.012;10.030;2024-03-02T13:40:45;93383.50;;;15.53
31528;BMP280;10206;48.012;10.030;2024-03-02T13:43:13;93375.78;;;15.89
31528;BMP280;10206;48.012;10.030;2024-03-02T13:45:40;93391.47;;;16.06
31528;BMP280;10206;48.012;10.030;2024-03-02T13:48:06;93381.09;;;16.05
31528;BMP280;10206;48.012;10.030;2024-03-02T13:50:33;93371.34;;;16.21
31528;BMP280;10206;48.012;10.030;2024-03-02T13:52:59;93372.34;;;16.32
31528;BMP280;10206;48.012;10.030;2024-03-02T13:55:25;93370.50;;;15.76
31528;BMP280;10206;48.012;10.030;2024-03-02T13:57:51;93359.47;;;15.54
31528;BMP280;10206;48.012;10.030;2024-03-02T14:00:18;93355.28;;;15.92
31528;BMP280;10206;48.012;10.030;2024-03-02T14:02:46;93354.25;;;16.03
31528;BMP280;10206;48.012;10.030;2024-03-02T14:05:12;93347.06;;;15.53
31528;BMP280;10206;48.012;10.030;2024-03-02T14:07:40;93362.56;;;16.05
31528;BMP280;10206;48.012;10.030;2024-03-02T14:10:06;93353.25;;;16.14
31528;BMP280;10206;48.012;10.030;2024-03-02T14:12:33;93353.22;;;15.93